Time;durP1;ratioP1;P1;durP2;ratioP2;P2;SDS_P1;SDS_P2;PMS_P1;PMS_P2;Temp;Humidity;BMP_temperature;BMP_pressure;BME280_temperature;BME280_humidity;BME280_pressure;Samples;Min_cycle;Max_cycle;Signal;HPM_P1;HPM_P2
2022/04/28 00:00:27;;;;;;;13.80;9.60;;;11.20;99.90;;;;;;5116070;28;20460;-71
2022/04/28 00:02:54;;;;;;;13.47;9.23;;;11.20;99.90;;;;;;5116286;28;20476;-70
2022/04/28 00:05:21;;;;;;;11.00;9.63;;;11.20;99.90;;;;;;5116976;28;20748;-70
2022/04/28 00:07:48;;;;;;;11.37;8.93;;;11.20;99.90;;;;;;5116468;28;20452;-70
2022/04/28 00:10:16;;;;;;;16.23;9.60;;;11.20;99.90;;;;;;5116450;28;20452;-70
2022/04/28 00:12:43;;;;;;;12.07;10.03;;;11.20;99.90;;;;;;5116745;28;20498;-70
2022/04/28 00:18:32;;;;;;;12.60;10.90;;;11.20;99.90;;;;;;5116394;28;20469;-69
2022/04/28 00:20:59;;;;;;;14.07;10.50;;;11.20;99.90;;;;;;5116290;28;20456;-71
2022/04/28 00:23:25;;;;;;;13.30;10.07;;;11.20;99.90;;;;;;5116145;28;20932;-71
2022/04/28 00:25:53;;;;;;;14.80;10.10;;;11.10;99.90;;;;;;5116352;28;20916;-71
2022/04/28 00:28:20;;;;;;;17.90;13.37;;;11.10;99.90;;;;;;5117403;28;20826;-71
2022/04/28 00:30:47;;;;;;;15.97;11.13;;;11.10;99.90;;;;;;5116283;28;20491;-71
2022/04/28 00:33:14;;;;;;;12.07;9.87;;;11.00;99.90;;;;;;5116059;28;20464;-71
2022/04/28 00:35:40;;;;;;;13.80;10.50;;;11.00;99.90;;;;;;5116307;28;20492;-71
2022/04/28 00:38:07;;;;;;;11.77;10.47;;;10.90;99.90;;;;;;5116219;28;20460;-71
2022/04/28 00:40:34;;;;;;;14.07;10.00;;;10.90;99.90;;;;;;5116264;28;20464;-71
2022/04/28 00:45:42;;;;;;;13.27;9.57;;;10.80;99.90;;;;;;5115350;28;20450;-71
2022/04/28 00:50:57;;;;;;;12.10;10.30;;;10.80;99.90;;;;;;5116274;28;20424;-70
2022/04/28 00:53:27;;;;;;;14.87;11.80;;;10.70;99.90;;;;;;5115944;28;20436;-71
2022/04/28 00:55:54;;;;;;;12.57;10.87;;;10.70;99.90;;;;;;5115452;28;20483;-71
2022/04/28 00:58:22;;;;;;;10.80;9.70;;;10.70;99.90;;;;;;5116172;28;20521;-71
2022/04/28 01:00:49;;;;;;;14.40;10.00;;;10.70;99.90;;;;;;5115857;28;20452;-71
2022/04/28 01:03:16;;;;;;;12.97;10.50;;;10.70;99.90;;;;;;5116026;28;20863;-71
2022/04/28 01:05:43;;;;;;;12.43;9.47;;;10.60;99.90;;;;;;5115854;28;20447;-71
2022/04/28 01:08:10;;;;;;;14.83;9.50;;;10.60;99.90;;;;;;5115466;28;20927;-71
2022/04/28 01:10:37;;;;;;;18.93;10.00;;;10.60;99.90;;;;;;5115331;28;20917;-70
2022/04/28 01:13:04;;;;;;;12.63;10.83;;;10.50;99.90;;;;;;5115736;28;20464;-71
2022/04/28 01:15:42;;;;;;;15.80;11.80;;;10.50;99.90;;;;;;5115918;28;20940;-70
2022/04/28 01:18:09;;;;;;;13.33;10.37;;;10.50;99.90;;;;;;5116036;28;20505;-71
2022/04/28 01:20:36;;;;;;;15.67;9.93;;;10.40;99.90;;;;;;5115454;28;20479;-71
2022/04/28 01:23:06;;;;;;;13.73;10.60;;;10.30;99.90;;;;;;5115652;28;20457;-70
2022/04/28 01:25:33;;;;;;;15.57;10.73;;;10.30;99.90;;;;;;5115436;28;20459;-71
2022/04/28 01:28:00;;;;;;;12.63;10.50;;;10.30;99.90;;;;;;5115348;28;20463;-70
2022/04/28 01:30:27;;;;;;;12.37;9.33;;;10.30;99.90;;;;;;5115505;28;20468;-70
2022/04/28 01:32:56;;;;;;;13.50;9.90;;;10.20;99.90;;;;;;5115818;28;20463;-72
2022/04/28 01:35:23;;;;;;;12.77;9.50;;;10.20;99.90;;;;;;5115849;28;20550;-70
2022/04/28 01:37:49;;;;;;;11.07;9.40;;;10.10;99.90;;;;;;5115276;28;20510;-70
2022/04/28 01:40:17;;;;;;;11.80;9.00;;;10.10;99.90;;;;;;5115624;28;20467;-71
2022/04/28 01:42:46;;;;;;;10.47;9.37;;;10.10;99.90;;;;;;5115065;28;20509;-70
2022/04/28 01:45:13;;;;;;;11.30;9.40;;;10.10;99.90;;;;;;5115818;28;20535;-70
2022/04/28 01:47:39;;;;;;;12.37;9.77;;;10.00;99.90;;;;;;5115699;28;20463;-71
2022/04/28 01:50:09;;;;;;;11.50;9.03;;;10.00;99.90;;;;;;5115677;28;20809;-71
2022/04/28 01:55:22;;;;;;;12.83;9.30;;;10.00;99.90;;;;;;5115351;28;20463;-71
2022/04/28 01:57:49;;;;;;;11.50;9.37;;;10.00;99.90;;;;;;5115122;28;20579;-71
2022/04/28 02:00:17;;;;;;;10.20;9.17;;;10.00;99.90;;;;;;5115175;28;20452;-71
2022/04/28 02:02:44;;;;;;;13.00;10.10;;;9.90;99.90;;;;;;5115139;28;20457;-71
2022/04/28 02:05:11;;;;;;;10.67;8.83;;;9.90;99.90;;;;;;5115180;28;20452;-70
2022/04/28 02:07:38;;;;;;;16.40;9.50;;;9.90;99.90;;;;;;5115253;28;20457;-71
2022/04/28 02:10:07;;;;;;;13.53;10.23;;;9.90;99.90;;;;;;5115017;28;20457;-72
2022/04/28 02:12:35;;;;;;;11.03;8.13;;;9.90;99.90;;;;;;5114928;28;20464;-70
2022/04/28 02:15:02;;;;;;;10.53;9.00;;;9.90;99.90;;;;;;5115094;28;20857;-71
2022/04/28 02:17:29;;;;;;;10.40;9.20;;;9.80;99.90;;;;;;5115036;28;20456;-70
2022/04/28 02:19:56;;;;;;;16.03;9.23;;;9.80;99.90;;;;;;5115505;28;20460;-71
2022/04/28 02:22:23;;;;;;;9.90;8.90;;;9.80;99.90;;;;;;5114925;28;20460;-71
2022/04/28 02:24:50;;;;;;;13.43;9.13;;;9.70;99.90;;;;;;5116624;28;20908;-70
2022/04/28 02:27:17;;;;;;;12.23;9.83;;;9.70;99.90;;;;;;5119109;28;20456;-71
2022/04/28 02:29:45;;;;;;;11.20;8.40;;;9.60;99.90;;;;;;5118874;28;20462;-72
2022/04/28 02:32:12;;;;;;;10.37;9.10;;;9.50;99.90;;;;;;5118747;28;20456;-71
2022/04/28 02:34:39;;;;;;;9.57;8.57;;;9.50;99.90;;;;;;5118706;28;20509;-71
2022/04/28 02:37:06;;;;;;;11.13;8.77;;;9.40;99.90;;;;;;5118287;28;20542;-71
2022/04/28 02:39:32;;;;;;;10.93;9.13;;;9.40;99.90;;;;;;5118643;28;20456;-70
2022/04/28 02:41:59;;;;;;;10.87;8.60;;;9.30;99.90;;;;;;5118618;28;20819;-71
2022/04/28 02:44:26;;;;;;;13.90;8.70;;;9.30;99.90;;;;;;5118441;28;20771;-70
2022/04/28 02:46:54;;;;;;;9.70;8.70;;;9.20;99.90;;;;;;5118490;28;20456;-72
2022/04/28 02:49:22;;;;;;;12.30;9.60;;;9.10;99.90;;;;;;5118766;28;20464;-71
2022/04/28 02:51:48;;;;;;;10.80;9.67;;;9.00;99.90;;;;;;5118695;28;20758;-70
2022/04/28 02:54:15;;;;;;;13.10;8.57;;;9.00;99.90;;;;;;5118513;28;20463;-71
2022/04/28 02:56:42;;;;;;;9.50;8.40;;;8.90;99.90;;;;;;5118577;28;20487;-71
2022/04/28 02:59:09;;;;;;;10.70;8.03;;;8.90;99.90;;;;;;5118387;28;20452;-70
2022/04/28 03:01:36;;;;;;;10.33;9.17;;;8.80;99.90;;;;;;5118457;28;20463;-71
2022/04/28 03:04:04;;;;;;;11.17;8.97;;;8.80;99.90;;;;;;5117909;28;20978;-70
2022/04/28 03:11:59;;;;;;;13.23;8.47;;;8.70;99.90;;;;;;5117836;28;20424;-71
2022/04/28 03:14:26;;;;;;;12.60;7.90;;;8.70;99.90;;;;;;5118028;28;20483;-70
2022/04/28 03:16:53;;;;;;;10.20;8.70;;;8.70;99.90;;;;;;5118209;28;20772;-71
2022/04/28 03:19:21;;;;;;;13.73;9.70;;;8.70;99.90;;;;;;5117915;28;20541;-70
2022/04/28 03:21:47;;;;;;;16.60;9.30;;;8.70;99.90;;;;;;5117788;28;20588;-71
2022/04/28 03:24:14;;;;;;;10.57;8.60;;;8.70;99.90;;;;;;5117803;28;20456;-71
2022/04/28 03:26:40;;;;;;;11.70;9.10;;;8.70;99.90;;;;;;5117886;28;20460;-70
2022/04/28 03:29:07;;;;;;;10.83;8.57;;;8.70;99.90;;;;;;5117753;28;20460;-71
2022/04/28 03:31:34;;;;;;;12.93;8.83;;;8.70;99.90;;;;;;5117817;28;20452;-70
2022/04/28 03:34:00;;;;;;;10.53;8.73;;;8.70;99.90;;;;;;5117950;28;20514;-70
2022/04/28 03:39:13;;;;;;;11.37;9.07;;;8.70;99.90;;;;;;5117562;28;20428;-71
2022/04/28 03:41:40;;;;;;;9.70;7.83;;;8.70;99.90;;;;;;5117875;28;20452;-71
2022/04/28 03:44:06;;;;;;;10.97;7.80;;;8.70;99.90;;;;;;5117311;28;20812;-71
2022/04/28 03:46:33;;;;;;;9.60;7.90;;;8.70;99.90;;;;;;5117072;28;20448;-72
2022/04/28 03:49:00;;;;;;;9.87;7.60;;;8.70;99.90;;;;;;5117169;28;20480;-71
2022/04/28 03:51:27;;;;;;;10.40;9.00;;;8.70;99.90;;;;;;5117240;28;20464;-70
2022/04/28 03:53:59;;;;;;;10.80;8.30;;;8.70;99.90;;;;;;5117425;28;20464;-71
2022/04/28 03:56:26;;;;;;;12.20;9.63;;;8.70;99.90;;;;;;5117102;28;20983;-71
2022/04/28 03:58:53;;;;;;;13.70;8.50;;;8.70;99.90;;;;;;5117111;28;20453;-71
2022/04/28 04:01:20;;;;;;;11.40;8.90;;;8.70;99.90;;;;;;5116825;28;20513;-71
2022/04/28 04:03:46;;;;;;;10.10;8.70;;;8.70;99.90;;;;;;5117463;28;20940;-71
2022/04/28 04:06:13;;;;;;;12.83;8.73;;;8.70;99.90;;;;;;5117091;28;20463;-71
2022/04/28 04:08:40;;;;;;;13.20;9.50;;;8.70;99.90;;;;;;5116737;28;20456;-73
2022/04/28 04:11:08;;;;;;;10.53;8.37;;;8.60;99.90;;;;;;5117089;28;20497;-72
2022/04/28 04:13:35;;;;;;;14.93;8.07;;;8.60;99.90;;;;;;5117156;28;20452;-70
2022/04/28 04:16:01;;;;;;;11.63;8.50;;;8.60;99.90;;;;;;5117224;28;20484;-72
2022/04/28 04:18:28;;;;;;;9.83;8.83;;;8.60;99.90;;;;;;5116636;28;20463;-71
2022/04/28 04:20:55;;;;;;;11.77;8.77;;;8.60;99.90;;;;;;5116767;28;20453;-71
2022/04/28 04:23:21;;;;;;;13.73;9.50;;;8.60;99.90;;;;;;5116337;28;20463;-71
2022/04/28 04:25:48;;;;;;;11.10;9.67;;;8.60;99.90;;;;;;5116887;28;20453;-71
2022/04/28 04:28:16;;;;;;;10.40;8.77;;;8.60;99.90;;;;;;5116687;28;20456;-70
2022/04/28 04:33:27;;;;;;;12.90;10.00;;;8.60;99.90;;;;;;5116288;28;20438;-71
2022/04/28 04:35:54;;;;;;;13.80;9.20;;;8.60;99.90;;;;;;5116436;28;20569;-71
2022/04/28 04:38:21;;;;;;;13.57;8.83;;;8.60;99.90;;;;;;5115979;28;20927;-71
2022/04/28 04:40:48;;;;;;;14.13;10.70;;;8.60;99.90;;;;;;5116063;28;20479;-71
2022/04/28 04:43:16;;;;;;;10.10;8.67;;;8.70;99.90;;;;;;5116198;28;20452;-71
2022/04/28 04:45:43;;;;;;;11.17;8.23;;;8.70;99.90;;;;;;5115751;28;20449;-72
2022/04/28 04:48:10;;;;;;;10.73;8.90;;;8.70;99.90;;;;;;5115266;28;20459;-70
2022/04/28 04:50:37;;;;;;;13.20;9.37;;;8.70;99.90;;;;;;5115864;28;20841;-71
2022/04/28 04:53:05;;;;;;;12.50;9.30;;;8.70;99.90;;;;;;5116199;28;20456;-71
2022/04/28 04:55:32;;;;;;;12.70;9.43;;;8.70;99.90;;;;;;5115623;28;20776;-69
2022/04/28 04:57:58;;;;;;;13.83;9.40;;;8.80;99.90;;;;;;5115997;28;20437;-71
2022/04/28 05:00:27;;;;;;;14.07;9.67;;;8.90;99.90;;;;;;5115291;28;20861;-70
2022/04/28 05:02:53;;;;;;;10.70;9.17;;;8.90;99.90;;;;;;5116531;28;20452;-70
2022/04/28 05:05:20;;;;;;;16.43;12.10;;;8.90;99.90;;;;;;5116556;28;20444;-71
2022/04/28 05:07:47;;;;;;;36.70;25.00;;;9.00;99.90;;;;;;5115510;28;20457;-72
2022/04/28 05:10:13;;;;;;;12.93;10.60;;;9.10;99.90;;;;;;5115651;28;20816;-71
2022/04/28 05:12:40;;;;;;;14.87;9.60;;;9.20;99.90;;;;;;5115452;28;20513;-71
2022/04/28 05:15:08;;;;;;;11.07;9.33;;;9.20;99.90;;;;;;5115249;28;20809;-71
2022/04/28 05:17:37;;;;;;;11.00;8.97;;;9.30;99.90;;;;;;5115224;28;20793;-72
2022/04/28 05:20:05;;;;;;;10.90;9.10;;;9.40;99.90;;;;;;5115551;28;20770;-72
2022/04/28 05:22:32;;;;;;;11.47;9.47;;;9.40;99.90;;;;;;5115771;28;20463;-71
2022/04/28 05:24:58;;;;;;;13.50;9.20;;;9.50;99.90;;;;;;5116057;28;20824;-71
2022/04/28 05:27:25;;;;;;;11.33;8.77;;;9.60;99.90;;;;;;5115156;28;20463;-70
2022/04/28 05:29:52;;;;;;;12.63;9.30;;;9.80;99.90;;;;;;5115062;28;20452;-71
2022/04/28 05:32:19;;;;;;;12.37;9.00;;;9.90;99.90;;;;;;5114879;28;20463;-71
2022/04/28 05:34:47;;;;;;;14.83;9.97;;;10.00;99.90;;;;;;5114924;28;20538;-71
2022/04/28 05:37:15;;;;;;;13.70;9.40;;;10.10;99.90;;;;;;5115097;28;20488;-71
2022/04/28 05:39:43;;;;;;;10.40;8.93;;;10.20;99.90;;;;;;5114896;28;20456;-71
2022/04/28 05:42:10;;;;;;;12.03;9.23;;;10.20;99.90;;;;;;5114871;28;20460;-71
2022/04/28 05:47:22;;;;;;;12.30;9.93;;;10.30;99.90;;;;;;5114497;28;20549;-70
2022/04/28 05:49:50;;;;;;;10.40;8.83;;;10.40;99.90;;;;;;5115109;28;20463;-70
2022/04/28 05:52:17;;;;;;;12.87;9.60;;;10.50;99.90;;;;;;5115079;28;20457;-71
2022/04/28 05:54:43;;;;;;;17.40;10.97;;;10.50;99.90;;;;;;5115011;28;20463;-71
2022/04/28 05:57:11;;;;;;;11.60;9.00;;;10.50;99.90;;;;;;5114808;28;20841;-72
2022/04/28 05:59:39;;;;;;;16.57;10.97;;;10.60;99.90;;;;;;5118135;28;20525;-71
2022/04/28 06:02:07;;;;;;;27.63;17.57;;;10.60;99.90;;;;;;5118983;28;20456;-71
2022/04/28 06:04:33;;;;;;;21.97;15.20;;;10.60;99.90;;;;;;5119081;28;20456;-71
2022/04/28 06:07:01;;;;;;;13.53;10.70;;;10.70;99.90;;;;;;5119012;28;20783;-69
2022/04/28 06:09:28;;;;;;;16.13;10.60;;;10.90;99.90;;;;;;5119036;28;20569;-71
2022/04/28 06:11:55;;;;;;;16.93;11.97;;;10.90;99.90;;;;;;5118845;28;20456;-71
2022/04/28 06:14:21;;;;;;;14.00;11.00;;;11.00;99.90;;;;;;5118852;28;20456;-71
2022/04/28 06:16:48;;;;;;;17.63;11.67;;;11.10;99.90;;;;;;5118734;28;20495;-71
2022/04/28 06:19:17;;;;;;;14.83;9.47;;;11.10;99.90;;;;;;5118694;28;20452;-71
2022/04/28 06:21:44;;;;;;;15.23;11.27;;;11.20;99.90;;;;;;5118361;28;20484;-71
2022/04/28 06:24:12;;;;;;;16.10;10.27;;;11.20;99.90;;;;;;5118562;28;20468;-71
2022/04/28 06:26:38;;;;;;;19.37;10.87;;;11.30;99.90;;;;;;5118128;28;20801;-70
2022/04/28 06:29:05;;;;;;;14.83;9.70;;;11.30;99.90;;;;;;5118489;28;20842;-72
2022/04/28 06:31:32;;;;;;;35.13;24.00;;;11.40;99.90;;;;;;5118481;28;20463;-71
2022/04/28 06:33:59;;;;;;;17.40;10.13;;;11.50;99.90;;;;;;5118499;28;20464;-71
2022/04/28 06:36:25;;;;;;;19.73;9.70;;;11.50;99.90;;;;;;5117823;28;20476;-71
2022/04/28 06:38:52;;;;;;;13.30;10.20;;;11.50;99.90;;;;;;5117947;28;20467;-71
2022/04/28 06:41:20;;;;;;;11.83;10.00;;;11.60;99.90;;;;;;5118275;28;20791;-71
2022/04/28 06:43:47;;;;;;;16.93;10.07;;;11.60;99.90;;;;;;5118812;28;20830;-72
2022/04/28 06:46:14;;;;;;;12.07;10.27;;;11.70;99.90;;;;;;5117982;28;20825;-71
2022/04/28 06:48:41;;;;;;;15.73;9.43;;;11.70;99.90;;;;;;5118009;28;20923;-71
2022/04/28 06:51:07;;;;;;;16.60;11.03;;;11.80;99.90;;;;;;5117893;28;20852;-71
2022/04/28 06:53:34;;;;;;;15.70;12.10;;;11.90;99.90;;;;;;5117981;28;20548;-71
2022/04/28 06:56:01;;;;;;;19.10;12.67;;;12.10;99.90;;;;;;5117732;28;20988;-70
2022/04/28 06:58:29;;;;;;;24.70;13.90;;;12.20;99.90;;;;;;5117339;28;20920;-71
2022/04/28 07:00:56;;;;;;;15.63;10.10;;;12.30;99.90;;;;;;5117948;28;20452;-71
2022/04/28 07:03:22;;;;;;;21.30;9.53;;;12.40;99.90;;;;;;5118211;28;20507;-72
2022/04/28 07:05:49;;;;;;;17.40;9.57;;;12.60;99.90;;;;;;5117667;28;20844;-73
2022/04/28 07:08:16;;;;;;;11.07;9.20;;;12.70;99.90;;;;;;5117671;28;20557;-71
2022/04/28 07:10:43;;;;;;;14.47;11.13;;;12.80;99.90;;;;;;5117127;28;20468;-71
2022/04/28 07:13:10;;;;;;;15.40;8.63;;;12.90;99.90;;;;;;5118050;28;20456;-71
2022/04/28 07:15:38;;;;;;;16.43;8.70;;;13.00;99.90;;;;;;5117102;28;20893;-71
2022/04/28 07:18:06;;;;;;;13.93;9.90;;;13.00;99.90;;;;;;5118001;28;20449;-72
2022/04/28 07:20:33;;;;;;;16.63;8.40;;;13.10;99.90;;;;;;5117632;28;20460;-71
2022/04/28 07:23:00;;;;;;;12.20;6.83;;;13.20;99.90;;;;;;5117354;28;20463;-70
2022/04/28 07:25:27;;;;;;;10.80;7.43;;;13.10;99.90;;;;;;5117566;28;20460;-70
2022/04/28 07:27:53;;;;;;;13.37;7.00;;;13.10;99.90;;;;;;5117510;28;20758;-72
2022/04/28 07:30:21;;;;;;;7.93;6.23;;;13.10;99.90;;;;;;5117203;28;20460;-71
2022/04/28 07:32:49;;;;;;;9.40;6.77;;;13.10;99.90;;;;;;5117293;28;20537;-72
2022/04/28 07:35:16;;;;;;;10.67;6.00;;;13.10;99.90;;;;;;5116982;28;20514;-72
2022/04/28 07:37:43;;;;;;;17.00;7.47;;;13.30;99.90;;;;;;5117182;28;20534;-71
2022/04/28 07:40:10;;;;;;;11.77;8.57;;;13.30;99.90;;;;;;5116665;28;20913;-70
2022/04/28 07:42:37;;;;;;;16.60;11.03;;;13.50;99.90;;;;;;5117230;28;20520;-72
2022/04/28 07:45:05;;;;;;;9.93;6.30;;;13.50;99.90;;;;;;5116946;28;20922;-71
2022/04/28 07:47:32;;;;;;;10.20;6.23;;;13.60;99.90;;;;;;5117181;28;20445;-72
2022/04/28 07:50:00;;;;;;;8.10;5.70;;;13.60;99.90;;;;;;5116576;28;20962;-71
2022/04/28 07:52:26;;;;;;;9.73;6.50;;;13.60;99.90;;;;;;5117167;28;20463;-72
2022/04/28 07:54:53;;;;;;;7.30;6.30;;;13.60;99.90;;;;;;5117230;28;20457;-71
2022/04/28 07:57:22;;;;;;;13.43;6.63;;;13.60;99.90;;;;;;5117087;28;20499;-71
2022/04/28 07:59:49;;;;;;;14.77;7.63;;;13.70;99.90;;;;;;5116863;28;20461;-72
2022/04/28 08:02:16;;;;;;;8.70;6.37;;;13.70;99.90;;;;;;5118040;28;20515;-71
2022/04/28 08:04:43;;;;;;;7.63;5.60;;;13.70;99.90;;;;;;5118663;28;20465;-71
2022/04/28 08:07:11;;;;;;;12.43;7.73;;;13.70;99.90;;;;;;5117775;28;20547;-71
2022/04/28 08:09:38;;;;;;;10.67;6.73;;;13.70;99.90;;;;;;5116754;28;20529;-70
2022/04/28 08:12:06;;;;;;;6.47;5.50;;;13.90;99.90;;;;;;5116923;28;20456;-71
2022/04/28 08:14:33;;;;;;;13.17;6.50;;;13.90;99.90;;;;;;5117093;28;20456;-71
2022/04/28 08:17:00;;;;;;;8.10;6.00;;;13.90;99.90;;;;;;5116517;28;20476;-72
2022/04/28 08:19:27;;;;;;;9.60;6.23;;;13.90;99.90;;;;;;5116529;28;20453;-72
2022/04/28 08:21:53;;;;;;;9.57;6.47;;;13.90;99.90;;;;;;5115061;28;20457;-72
2022/04/28 08:24:21;;;;;;;7.70;5.47;;;13.90;99.90;;;;;;5116560;28;20782;-72
2022/04/28 08:26:48;;;;;;;11.20;6.70;;;13.80;99.90;;;;;;5116260;28;20464;-73
2022/04/28 08:29:15;;;;;;;10.73;7.30;;;13.80;99.90;;;;;;5115856;28;20458;-72
2022/04/28 08:31:44;;;;;;;8.50;6.37;;;13.90;99.90;;;;;;5116305;28;20499;-72
2022/04/28 08:34:11;;;;;;;8.60;6.50;;;13.90;99.90;;;;;;5115860;28;20456;-71
2022/04/28 08:36:38;;;;;;;11.03;5.67;;;13.90;99.90;;;;;;5115926;28;20472;-72
2022/04/28 08:39:06;;;;;;;9.47;5.90;;;14.00;99.90;;;;;;5116155;28;20456;-72
2022/04/28 08:41:35;;;;;;;8.63;6.10;;;14.00;99.90;;;;;;5115612;28;20461;-70
2022/04/28 08:44:05;;;;;;;8.50;6.43;;;14.10;99.90;;;;;;5115849;28;20460;-72
2022/04/28 08:49:18;;;;;;;10.83;6.40;;;14.10;99.90;;;;;;5115294;28;20558;-72
2022/04/28 08:51:45;;;;;;;12.40;7.40;;;14.10;99.90;;;;;;5115543;28;20832;-72
2022/04/28 08:54:13;;;;;;;10.00;6.50;;;14.20;99.90;;;;;;5115961;28;20464;-71
2022/04/28 08:56:41;;;;;;;9.97;7.80;;;14.30;99.90;;;;;;5115596;28;20836;-72
2022/04/28 08:59:09;;;;;;;11.07;6.90;;;14.40;99.90;;;;;;5115938;28;20480;-72
2022/04/28 09:01:36;;;;;;;15.43;7.13;;;14.50;99.90;;;;;;5115298;28;20460;-72
2022/04/28 09:04:04;;;;;;;12.40;6.97;;;14.70;99.90;;;;;;5115664;28;20460;-72
2022/04/28 09:06:34;;;;;;;8.77;7.20;;;14.90;99.90;;;;;;5115558;28;20453;-71
2022/04/28 09:09:04;;;;;;;16.63;6.73;;;15.10;99.90;;;;;;5115882;28;20792;-72
2022/04/28 09:11:34;;;;;;;10.03;7.30;;;15.20;99.90;;;;;;5116054;28;20543;-70
2022/04/28 09:14:10;;;;;;;9.77;6.30;;;15.20;99.90;;;;;;5115510;28;20460;-71
2022/04/28 09:16:38;;;;;;;7.93;6.27;;;15.10;99.90;;;;;;5115840;28;20460;-72
2022/04/28 09:19:05;;;;;;;11.60;6.60;;;15.20;99.90;;;;;;5115382;28;20593;-72
2022/04/28 09:21:34;;;;;;;10.40;6.00;;;15.20;99.90;;;;;;5115271;28;20457;-71
2022/04/28 09:24:01;;;;;;;8.23;6.43;;;15.30;99.90;;;;;;5115671;28;20484;-71
2022/04/28 09:26:27;;;;;;;11.40;6.57;;;15.30;99.90;;;;;;5114891;28;20448;-71
2022/04/28 09:28:54;;;;;;;11.27;6.90;;;15.30;99.90;;;;;;5115046;28;20452;-72
2022/04/28 09:31:23;;;;;;;9.40;6.57;;;15.40;99.90;;;;;;5115264;28;20456;-71
2022/04/28 09:33:51;;;;;;;10.93;7.10;;;15.60;99.90;;;;;;5114792;28;20849;-72
2022/04/28 09:36:18;;;;;;;13.43;6.80;;;15.80;99.90;;;;;;5115236;28;20464;-71
2022/04/28 09:38:45;;;;;;;10.13;7.77;;;15.90;99.90;;;;;;5115176;28;20763;-72
2022/04/28 09:43:57;;;;;;;7.50;6.23;;;16.20;99.90;;;;;;5115321;28;20506;-71
2022/04/28 09:46:25;;;;;;;11.50;6.37;;;16.20;99.90;;;;;;5115007;28;20452;-71
2022/04/28 09:48:53;;;;;;;8.63;6.57;;;16.20;99.90;;;;;;5115018;28;20456;-71
2022/04/28 09:51:23;;;;;;;13.73;7.80;;;16.20;99.90;;;;;;5114805;28;20904;-71
2022/04/28 09:53:51;;;;;;;5.80;5.30;;;16.10;99.90;;;;;;5114797;28;20452;-69
2022/04/28 09:56:24;;;;;;;7.10;5.27;;;16.10;99.90;;;;;;5114693;28;20485;-72
2022/04/28 09:58:52;;;;;;;9.93;6.70;;;16.10;99.90;;;;;;5114879;28;20439;-72
2022/04/28 10:01:19;;;;;;;8.07;6.10;;;16.20;99.90;;;;;;5114920;28;20457;-71
2022/04/28 10:03:48;;;;;;;12.20;6.13;;;16.30;99.90;;;;;;5114714;28;20488;-72
2022/04/28 10:06:16;;;;;;;7.87;5.40;;;16.40;99.90;;;;;;5114648;28;20814;-72
2022/04/28 10:08:43;;;;;;;9.83;6.17;;;16.50;99.90;;;;;;5114707;28;20553;-72
2022/04/28 10:11:17;;;;;;;6.70;5.70;;;16.40;99.90;;;;;;5114715;28;20463;-71
2022/04/28 10:13:46;;;;;;;10.90;5.63;;;16.30;99.90;;;;;;5115103;28;20436;-72
2022/04/28 10:16:14;;;;;;;7.87;5.60;;;16.20;99.90;;;;;;5114595;28;20452;-72
2022/04/28 10:18:45;;;;;;;7.63;5.70;;;16.10;99.90;;;;;;5114645;28;20744;-72
2022/04/28 10:21:17;;;;;;;7.90;5.77;;;16.20;99.90;;;;;;5114566;28;20514;-73
2022/04/28 10:32:36;;;;;;;7.20;4.87;;;16.40;99.90;;;;;;5114099;28;20463;-71
2022/04/28 10:35:08;;;;;;;7.67;6.40;;;16.30;99.90;;;;;;5113310;28;20456;-72
2022/04/28 10:37:40;;;;;;;9.03;5.50;;;16.20;99.90;;;;;;5114193;28;20471;-70
2022/04/28 10:40:13;;;;;;;14.30;6.37;;;16.00;99.90;;;;;;5114599;28;20441;-70
2022/04/28 10:43:00;;;;;;;11.07;6.10;;;16.00;99.90;;;;;;5114190;28;20488;-70
2022/04/28 10:45:28;;;;;;;7.33;5.53;;;16.00;99.90;;;;;;5115255;28;20784;-70
2022/04/28 10:48:29;;;;;;;10.30;5.50;;;16.20;99.90;;;;;;5118491;28;20925;-72
2022/04/28 10:51:05;;;;;;;7.70;5.33;;;16.30;98.60;;;;;;5118200;28;20791;-72
2022/04/28 10:53:34;;;;;;;5.53;5.03;;;16.40;98.40;;;;;;5118436;28;20432;-71
2022/04/28 10:56:09;;;;;;;9.30;5.00;;;16.50;97.70;;;;;;5117787;28;20494;-71
2022/04/28 10:58:37;;;;;;;6.20;5.60;;;16.60;96.70;;;;;;5117294;28;20476;-71
2022/04/28 11:01:05;;;;;;;8.57;5.40;;;16.50;96.50;;;;;;5117852;28;20513;-71
2022/04/28 11:03:46;;;;;;;9.70;6.60;;;16.50;96.60;;;;;;5117545;28;20453;-70
2022/04/28 11:06:14;;;;;;;5.97;4.40;;;16.40;97.50;;;;;;5117542;28;20456;-72
2022/04/28 11:08:47;;;;;;;7.77;4.50;;;16.60;96.10;;;;;;5118224;28;20792;-71
2022/04/28 11:11:14;;;;;;;5.70;4.43;;;16.60;95.40;;;;;;5117680;28;20436;-71
2022/04/28 11:13:45;;;;;;;5.70;4.30;;;16.70;95.10;;;;;;5117742;28;20456;-70
2022/04/28 11:16:13;;;;;;;6.10;4.60;;;16.70;95.90;;;;;;5117484;28;20467;-70
2022/04/28 11:18:40;;;;;;;5.83;5.10;;;16.90;95.80;;;;;;5117510;28;20491;-70
2022/04/28 11:21:07;;;;;;;6.40;4.93;;;17.10;95.20;;;;;;5119348;28;20537;-71
2022/04/28 11:23:36;;;;;;;9.90;4.10;;;17.30;95.00;;;;;;5120438;28;20456;-71
2022/04/28 11:26:05;;;;;;;6.53;4.83;;;17.70;94.60;;;;;;5118641;28;20471;-72
2022/04/28 11:28:32;;;;;;;6.00;5.10;;;17.90;93.40;;;;;;5117318;28;20463;-72
2022/04/28 11:30:59;;;;;;;4.90;4.40;;;17.80;92.70;;;;;;5117504;28;20452;-71
2022/04/28 11:33:26;;;;;;;5.90;4.63;;;17.80;93.30;;;;;;5117244;28;20862;-71
2022/04/28 11:35:53;;;;;;;9.20;4.70;;;17.80;92.90;;;;;;5117136;28;20559;-71
2022/04/28 11:38:27;;;;;;;6.53;4.80;;;17.70;93.20;;;;;;5116657;28;20580;-70
2022/04/28 11:41:03;;;;;;;8.30;4.80;;;17.50;91.80;;;;;;5117604;28;20453;-71
2022/04/28 11:43:32;;;;;;;8.23;4.40;;;17.40;91.70;;;;;;5116718;28;20912;-70
2022/04/28 11:46:00;;;;;;;7.00;4.37;;;17.40;92.40;;;;;;5117087;28;20579;-71
2022/04/28 11:48:30;;;;;;;6.73;4.60;;;17.50;92.10;;;;;;5116791;28;20513;-71
2022/04/28 11:51:04;;;;;;;6.27;4.20;;;18.20;90.50;;;;;;5116937;28;20448;-71
2022/04/28 11:53:44;;;;;;;4.70;3.60;;;19.00;87.40;;;;;;5117278;28;20491;-71
2022/04/28 11:56:21;;;;;;;7.13;4.70;;;19.50;80.80;;;;;;5116199;28;20851;-71
2022/04/28 11:58:51;;;;;;;5.83;4.23;;;19.80;78.00;;;;;;5116687;28;20563;-71
2022/04/28 12:01:19;;;;;;;5.13;3.77;;;20.20;78.40;;;;;;5116390;28;20448;-71
2022/04/28 12:03:51;;;;;;;5.97;4.20;;;21.10;74.10;;;;;;5116826;28;20453;-71
2022/04/28 12:06:19;;;;;;;6.50;4.67;;;21.80;67.50;;;;;;5116474;28;20460;-71
2022/04/28 12:08:50;;;;;;;7.67;4.23;;;21.70;63.30;;;;;;5116467;28;20513;-71
2022/04/28 12:19:33;;;;;;;8.70;4.10;;;18.80;66.80;;;;;;5115919;28;20480;-71
2022/04/28 12:22:03;;;;;;;25.40;18.53;;;18.50;67.90;;;;;;5116180;28;20791;-70
2022/04/28 12:24:33;;;;;;;6.90;4.73;;;18.40;69.50;;;;;;5116190;28;20535;-70
2022/04/28 12:27:07;;;;;;;14.03;4.63;;;18.50;71.00;;;;;;5116192;28;20517;-70
2022/04/28 12:29:46;;;;;;;4.97;4.43;;;18.60;72.10;;;;;;5116156;28;20833;-72
2022/04/28 12:32:14;;;;;;;7.83;4.70;;;18.70;70.90;;;;;;5116148;28;20436;-72
2022/04/28 12:34:41;;;;;;;7.00;4.57;;;18.70;69.70;;;;;;5115619;28;20539;-71
2022/04/28 12:37:08;;;;;;;5.30;4.33;;;18.80;70.00;;;;;;5115819;28;20779;-70
2022/04/28 12:39:57;;;;;;;6.23;4.20;;;19.10;68.20;;;;;;5115753;28;20484;-70
2022/04/28 12:42:25;;;;;;;8.37;3.67;;;19.20;65.50;;;;;;5116119;28;20441;-70
2022/04/28 12:44:54;;;;;;;5.37;3.20;;;19.10;65.50;;;;;;5116004;28;20531;-71
2022/04/28 12:47:21;;;;;;;6.47;3.60;;;19.20;66.00;;;;;;5115457;28;20449;-71
2022/04/28 12:49:49;;;;;;;11.00;4.10;;;19.60;66.00;;;;;;5115457;28;20472;-71
2022/04/28 12:52:30;;;;;;;8.50;3.97;;;19.80;62.40;;;;;;5115398;28;20452;-71
2022/04/28 12:55:04;;;;;;;8.23;3.57;;;19.90;61.60;;;;;;5116012;28;20448;-71
2022/04/28 12:57:31;;;;;;;4.60;3.63;;;20.20;60.40;;;;;;5115157;28;20488;-72
2022/04/28 13:00:03;;;;;;;4.73;3.50;;;20.30;59.90;;;;;;5115794;28;20453;-71
2022/04/28 13:02:31;;;;;;;5.67;3.90;;;20.30;59.10;;;;;;5116322;28;20441;-72
2022/04/28 13:05:09;;;;;;;4.80;3.07;;;19.90;58.80;;;;;;5115925;28;20467;-71
2022/04/28 13:07:36;;;;;;;8.83;3.60;;;19.60;60.00;;;;;;5115398;28;20432;-71
2022/04/28 13:10:04;;;;;;;7.20;5.90;;;19.50;60.90;;;;;;5115788;28;20456;-72
2022/04/28 13:12:30;;;;;;;6.13;4.43;;;20.00;62.60;;;;;;5115915;28;20460;-71
2022/04/28 13:15:01;;;;;;;3.53;3.23;;;20.70;59.20;;;;;;5116228;28;20464;-73
2022/04/28 13:17:30;;;;;;;5.47;3.67;;;20.90;58.20;;;;;;5116290;28;20877;-71
2022/04/28 13:20:00;;;;;;;5.80;4.27;;;20.90;57.00;;;;;;5116131;28;20487;-69
2022/04/28 13:22:27;;;;;;;7.03;6.33;;;20.60;56.70;;;;;;5116472;28;20464;-71
2022/04/28 13:24:55;;;;;;;6.53;4.30;;;20.40;57.80;;;;;;5115887;28;20460;-72
2022/04/28 13:27:22;;;;;;;5.70;3.80;;;20.20;57.60;;;;;;5115876;28;20480;-72
2022/04/28 13:29:49;;;;;;;8.70;4.20;;;20.00;57.00;;;;;;5115875;28;20453;-74
2022/04/28 13:32:15;;;;;;;6.07;4.30;;;19.80;57.40;;;;;;5115098;28;20455;-71